Time;durP1;ratioP1;P1;durP2;ratioP2;P2;SDS_P1;SDS_P2;PMS_P1;PMS_P2;Temp;Humidity;BMP_temperature;BMP_pressure;BME280_temperature;BME280_humidity;BME280_pressure;Samples;Min_cycle;Max_cycle;Signal;HPM_P1;HPM_P2
2023/03/08 00:01:02;;;;;;;1.73;0.60;;;-0.70;99.90;;;;;;5001408;28;20042;-40
2023/03/08 00:03:28;;;;;;;3.50;0.90;;;-0.70;99.90;;;;;;5006733;28;20058;-40
2023/03/08 00:05:53;;;;;;;2.83;0.80;;;-0.70;99.90;;;;;;5003591;28;20415;-42
2023/03/08 00:08:19;;;;;;;2.40;0.80;;;-0.70;99.90;;;;;;5002807;28;20050;-41
2023/03/08 00:10:45;;;;;;;2.53;0.75;;;-0.70;99.90;;;;;;5007146;28;20599;-40
2023/03/08 00:13:11;;;;;;;2.35;0.80;;;-0.70;99.90;;;;;;5004394;28;20045;-39
2023/03/08 00:15:37;;;;;;;3.00;1.10;;;-0.70;99.90;;;;;;5004392;28;20057;-40
2023/03/08 00:18:04;;;;;;;4.43;1.20;;;-0.70;99.90;;;;;;5007458;28;20045;-40
2023/03/08 00:20:30;;;;;;;3.20;1.33;;;-0.60;99.90;;;;;;5004417;28;20103;-40
2023/03/08 00:22:55;;;;;;;3.78;1.23;;;-0.60;99.90;;;;;;5004112;28;20530;-41
2023/03/08 00:25:21;;;;;;;4.90;1.95;;;-0.60;99.90;;;;;;5006806;28;20057;-41
2023/03/08 00:27:47;;;;;;;5.28;2.20;;;-0.60;99.90;;;;;;5000424;28;20065;-41
2023/03/08 00:30:14;;;;;;;5.72;2.55;;;-0.70;99.90;;;;;;4997155;28;20053;-41
2023/03/08 00:32:39;;;;;;;4.82;2.13;;;-0.70;99.90;;;;;;5001050;28;20050;-39
2023/03/08 00:35:06;;;;;;;5.32;2.63;;;-0.70;99.90;;;;;;5003359;28;20069;-41
2023/03/08 00:37:32;;;;;;;6.15;2.70;;;-0.70;99.90;;;;;;5004264;28;20531;-42
2023/03/08 00:39:58;;;;;;;8.02;2.53;;;-0.70;99.90;;;;;;5004905;28;20073;-41
2023/03/08 00:42:24;;;;;;;5.88;2.95;;;-0.70;99.90;;;;;;5004229;28;20088;-40
2023/03/08 00:44:49;;;;;;;8.73;3.95;;;-0.70;99.90;;;;;;5004433;28;20049;-41
2023/03/08 00:47:15;;;;;;;9.32;3.45;;;-0.80;99.90;;;;;;5002889;28;20104;-42
2023/03/08 00:49:42;;;;;;;7.95;3.90;;;-0.80;99.90;;;;;;4995798;28;20499;-40
2023/03/08 00:52:08;;;;;;;8.30;3.28;;;-0.80;99.90;;;;;;5004556;28;20862;-40
2023/03/08 00:54:34;;;;;;;6.85;3.67;;;-0.90;99.90;;;;;;4994232;28;20460;-40
2023/03/08 00:57:00;;;;;;;10.50;4.10;;;-0.90;99.90;;;;;;5001793;28;20056;-40
2023/03/08 00:59:25;;;;;;;7.97;4.10;;;-0.90;99.90;;;;;;5004192;28;20054;-40
2023/03/08 01:01:51;;;;;;;9.13;4.88;;;-0.90;99.90;;;;;;5004874;28;20058;-39
2023/03/08 01:04:16;;;;;;;9.52;4.20;;;-0.90;99.90;;;;;;5020428;28;20064;-41
2023/03/08 01:06:42;;;;;;;7.63;3.75;;;-1.00;99.90;;;;;;5002869;28;20183;-41
2023/03/08 01:09:09;;;;;;;10.38;4.55;;;-1.00;99.90;;;;;;5004584;28;20050;-41
2023/03/08 01:11:36;;;;;;;7.90;4.07;;;-1.00;99.90;;;;;;5003874;28;20072;-41
2023/03/08 01:14:03;;;;;;;9.05;4.18;;;-1.00;99.90;;;;;;5004848;28;20061;-40
2023/03/08 01:16:31;;;;;;;9.70;4.60;;;-1.10;99.90;;;;;;5004625;28;20519;-40
2023/03/08 01:18:59;;;;;;;7.47;3.80;;;-1.10;99.90;;;;;;5004589;28;20050;-38
2023/03/08 01:21:29;;;;;;;8.82;3.67;;;-1.10;99.90;;;;;;5004040;28;20057;-41
2023/03/08 01:23:55;;;;;;;10.95;4.00;;;-1.10;99.90;;;;;;5003135;28;20495;-39
2023/03/08 01:26:23;;;;;;;7.85;4.10;;;-1.10;99.90;;;;;;5003846;28;20050;-39
2023/03/08 01:28:49;;;;;;;10.40;3.70;;;-1.10;99.90;;;;;;5002197;28;20054;-42
2023/03/08 01:31:23;;;;;;;8.07;3.65;;;-1.10;99.90;;;;;;5004645;28;20080;-39
2023/03/08 01:33:49;;;;;;;6.97;4.03;;;-1.10;99.90;;;;;;5008557;28;20419;-40
2023/03/08 01:36:17;;;;;;;9.20;3.63;;;-1.00;99.90;;;;;;5018092;28;20042;-39
2023/03/08 01:38:43;;;;;;;7.47;3.95;;;-1.10;99.90;;;;;;5001195;28;20077;-40
2023/03/08 01:41:15;;;;;;;7.78;3.35;;;-1.00;99.90;;;;;;5006531;28;20420;-40
2023/03/08 01:43:42;;;;;;;6.82;3.42;;;-1.00;99.90;;;;;;5002254;28;20050;-39
2023/03/08 01:46:36;;;;;;;6.70;3.42;;;-1.00;99.90;;;;;;5005766;28;20506;-40
2023/03/08 01:49:32;;;;;;;8.98;3.20;;;-1.10;99.90;;;;;;5000715;28;20062;-40
2023/03/08 01:52:07;;;;;;;7.35;3.15;;;-1.00;99.90;;;;;;5002713;28;20065;-40
2023/03/08 01:55:03;;;;;;;6.38;3.03;;;-1.10;99.90;;;;;;4993559;28;20141;-40
2023/03/08 01:57:33;;;;;;;9.48;3.17;;;-1.10;99.90;;;;;;4984295;28;20057;-40
2023/03/08 02:00:08;;;;;;;7.82;3.28;;;-1.10;99.90;;;;;;4997375;28;20049;-44
2023/03/08 02:02:40;;;;;;;6.60;2.95;;;-1.10;99.90;;;;;;4997827;28;20087;-40
2023/03/08 02:05:07;;;;;;;;;;;-1.10;99.90;;;;;;5001457;28;20053;-45
2023/03/08 02:07:32;;;;;;;5.47;2.85;;;-1.10;99.90;;;;;;4996909;28;19921;-40
2023/03/08 02:09:58;;;;;;;5.78;2.30;;;-1.10;99.90;;;;;;4993558;28;20088;-40
2023/03/08 02:12:25;;;;;;;6.72;3.00;;;-1.10;99.90;;;;;;4999414;28;20179;-38
2023/03/08 02:14:52;;;;;;;6.00;2.88;;;-1.10;99.90;;;;;;5004292;28;20046;-40
2023/03/08 02:17:17;;;;;;;7.80;3.13;;;-1.10;99.90;;;;;;5004255;28;20078;-40
2023/03/08 02:20:02;;;;;;;5.40;2.88;;;-1.10;99.90;;;;;;5003816;28;20077;-40
2023/03/08 02:22:27;;;;;;;21.67;3.25;;;-1.10;99.90;;;;;;5001864;28;20057;-40
2023/03/08 02:24:53;;;;;;;5.78;3.28;;;-1.10;99.90;;;;;;5004405;28;20054;-41
2023/03/08 02:27:23;;;;;;;9.70;3.33;;;-1.10;99.90;;;;;;5001135;28;20547;-40
2023/03/08 02:29:49;;;;;;;6.72;3.13;;;-1.10;99.90;;;;;;5003580;28;20057;-39
2023/03/08 02:32:15;;;;;;;8.43;2.80;;;-1.10;99.90;;;;;;5001177;28;20420;-41
2023/03/08 02:34:41;;;;;;;7.60;3.03;;;-1.10;99.90;;;;;;5004694;28;20065;-40
2023/03/08 02:37:07;;;;;;;5.95;2.85;;;-1.10;99.90;;;;;;4998494;28;20072;-41
2023/03/08 02:39:32;;;;;;;4.80;2.50;;;-1.20;99.90;;;;;;5001849;28;20061;-40
2023/03/08 02:41:58;;;;;;;7.00;2.50;;;-1.20;99.90;;;;;;4999001;28;20078;-41
2023/03/08 02:44:24;;;;;;;7.00;2.40;;;-1.20;99.90;;;;;;5003897;28;20058;-40
2023/03/08 02:46:51;;;;;;;5.72;2.85;;;-1.20;99.90;;;;;;4999664;28;20108;-41
2023/03/08 02:49:17;;;;;;;4.63;2.22;;;-1.20;99.90;;;;;;5003622;28;20538;-39
2023/03/08 02:51:42;;;;;;;6.43;2.53;;;-1.10;99.90;;;;;;5002864;28;20054;-42
2023/03/08 02:54:08;;;;;;;5.72;3.00;;;-1.10;99.90;;;;;;5007945;28;20041;-40
2023/03/08 02:56:36;;;;;;;6.38;2.35;;;-1.10;99.90;;;;;;5001238;28;22048;-39
2023/03/08 02:59:03;;;;;;;7.22;2.45;;;-1.10;99.90;;;;;;5004512;28;20685;-39
2023/03/08 03:01:28;;;;;;;6.35;2.30;;;-1.10;99.90;;;;;;5004417;28;20141;-41
2023/03/08 03:03:54;;;;;;;5.07;2.45;;;-1.20;99.90;;;;;;5004713;28;20133;-40
2023/03/08 03:06:21;;;;;;;5.00;2.50;;;-1.20;99.90;;;;;;4995444;28;20111;-40
2023/03/08 03:08:47;;;;;;;7.03;2.80;;;-1.20;99.90;;;;;;5004133;28;20548;-45
2023/03/08 03:11:18;;;;;;;6.10;2.22;;;-1.20;99.90;;;;;;5018168;28;20045;-41
2023/03/08 03:13:44;;;;;;;5.63;2.28;;;-1.20;99.90;;;;;;5004860;28;20084;-41
2023/03/08 03:16:12;;;;;;;6.57;2.63;;;-1.20;99.90;;;;;;5006313;28;20049;-41
2023/03/08 03:18:38;;;;;;;4.70;1.85;;;-1.30;99.90;;;;;;4996688;28;20050;-41
2023/03/08 03:21:11;;;;;;;8.52;3.00;;;-1.20;99.90;;;;;;5022746;28;20108;-40
2023/03/08 03:23:37;;;;;;;7.32;2.63;;;-1.20;99.90;;;;;;4996945;28;20515;-40
2023/03/08 03:26:08;;;;;;;5.28;2.85;;;-1.20;99.90;;;;;;5004416;28;20084;-39
2023/03/08 03:28:34;;;;;;;6.07;2.70;;;-1.20;99.90;;;;;;5006109;28;20074;-40
2023/03/08 03:31:00;;;;;;;5.22;2.53;;;-1.30;99.90;;;;;;4999670;28;20132;-41
2023/03/08 03:33:26;;;;;;;6.78;2.55;;;-1.30;99.90;;;;;;5005303;28;20530;-38
2023/03/08 03:35:51;;;;;;;5.47;3.08;;;-1.30;99.90;;;;;;4999661;28;20046;-39
2023/03/08 03:38:18;;;;;;;6.40;2.58;;;-1.30;99.90;;;;;;5007777;28;20042;-41
2023/03/08 03:40:44;;;;;;;5.90;2.88;;;-1.30;99.90;;;;;;5001376;28;20076;-40
2023/03/08 03:43:09;;;;;;;4.90;2.58;;;-1.30;99.90;;;;;;5005830;28;20492;-40
2023/03/08 03:45:35;;;;;;;4.47;2.10;;;-1.30;99.90;;;;;;5004099;28;20049;-41
2023/03/08 03:48:01;;;;;;;6.72;2.47;;;-1.40;99.90;;;;;;5004704;28;20437;-40
2023/03/08 03:50:27;;;;;;;5.88;2.38;;;-1.30;99.90;;;;;;5006539;28;20058;-41
2023/03/08 03:52:52;;;;;;;4.68;2.50;;;-1.30;99.90;;;;;;5005747;28;20053;-40
2023/03/08 03:55:18;;;;;;;5.30;2.38;;;-1.40;99.90;;;;;;5005876;28;20072;-41
2023/03/08 03:57:44;;;;;;;5.25;2.67;;;-1.40;99.90;;;;;;5001011;28;20423;-40
2023/03/08 04:00:10;;;;;;;6.07;2.10;;;-1.40;99.90;;;;;;5005147;28;20081;-40
2023/03/08 04:02:35;;;;;;;4.95;2.80;;;-1.40;99.90;;;;;;5004651;28;20048;-41
2023/03/08 04:05:01;;;;;;;5.68;2.15;;;-1.40;99.90;;;;;;4998476;28;20054;-41
2023/03/08 04:07:27;;;;;;;8.65;2.60;;;-1.40;99.90;;;;;;5002120;28;20050;-39
2023/03/08 04:09:52;;;;;;;5.13;2.53;;;-1.40;99.90;;;;;;5005225;28;20048;-40
2023/03/08 04:12:18;;;;;;;3.70;2.15;;;-1.50;99.90;;;;;;5004740;28;20073;-41
2023/03/08 04:14:44;;;;;;;5.35;2.13;;;-1.50;99.90;;;;;;5002701;28;20060;-40
2023/03/08 04:17:09;;;;;;;7.05;2.72;;;-1.50;99.90;;;;;;5000688;28;20052;-40
2023/03/08 04:19:35;;;;;;;4.93;3.00;;;-1.50;99.90;;;;;;5004323;28;20064;-40
2023/03/08 04:22:01;;;;;;;4.57;2.50;;;-1.50;99.90;;;;;;5006759;28;20045;-40
2023/03/08 04:24:26;;;;;;;5.40;1.98;;;-1.60;99.90;;;;;;4999430;28;20057;-40
2023/03/08 04:26:52;;;;;;;6.10;2.38;;;-1.50;99.90;;;;;;5002525;28;20054;-42
2023/03/08 04:29:18;;;;;;;6.53;3.50;;;-1.50;99.90;;;;;;4999852;28;20058;-39
2023/03/08 04:31:43;;;;;;;6.93;2.38;;;-1.60;99.90;;;;;;5000801;28;20487;-41
2023/03/08 04:34:10;;;;;;;4.50;2.30;;;-1.60;99.90;;;;;;5001871;28;20046;-40
2023/03/08 04:36:36;;;;;;;5.53;2.38;;;-1.60;99.90;;;;;;5001384;28;20671;-40
2023/03/08 04:39:01;;;;;;;5.75;1.92;;;-1.60;99.90;;;;;;5000938;28;20128;-40
2023/03/08 04:41:27;;;;;;;4.15;2.50;;;-1.60;99.90;;;;;;5005676;28;20583;-41
2023/03/08 04:43:55;;;;;;;5.78;1.63;;;-1.60;99.90;;;;;;5002519;28;20053;-41
2023/03/08 04:46:23;;;;;;;5.82;1.90;;;-1.60;99.90;;;;;;5004279;28;20077;-41
2023/03/08 04:48:54;;;;;;;4.43;2.00;;;-1.60;99.90;;;;;;5003318;28;20143;-40
2023/03/08 04:51:22;;;;;;;6.13;2.20;;;-1.60;99.90;;;;;;5005589;28;20062;-41
2023/03/08 04:53:48;;;;;;;4.22;2.13;;;-1.60;99.90;;;;;;5000395;28;20169;-40
2023/03/08 04:56:15;;;;;;;4.15;1.95;;;-1.60;99.90;;;;;;5003424;28;20219;-38
2023/03/08 04:58:41;;;;;;;3.40;2.05;;;-1.60;99.90;;;;;;5000030;28;20057;-40
2023/03/08 05:01:13;;;;;;;4.90;2.03;;;-1.60;99.90;;;;;;5002975;28;22169;-40
2023/03/08 05:03:39;;;;;;;5.82;2.60;;;-1.60;99.90;;;;;;5002223;28;20057;-41
2023/03/08 05:06:05;;;;;;;4.90;2.28;;;-1.60;99.90;;;;;;5004268;28;20097;-40
2023/03/08 05:08:31;;;;;;;5.18;1.80;;;-1.60;99.90;;;;;;5004480;28;20050;-38
2023/03/08 05:10:59;;;;;;;5.05;2.15;;;-1.60;99.90;;;;;;4999920;28;20340;-40
2023/03/08 05:13:30;;;;;;;4.25;2.33;;;-1.60;99.90;;;;;;5004937;28;20539;-40
2023/03/08 05:15:57;;;;;;;4.07;1.52;;;-1.60;99.90;;;;;;4986991;28;20046;-41
2023/03/08 05:18:23;;;;;;;3.58;1.90;;;-1.60;99.90;;;;;;4997443;28;20054;-41
2023/03/08 05:21:00;;;;;;;5.05;1.80;;;-1.60;99.90;;;;;;5000791;28;20045;-41
2023/03/08 05:23:26;;;;;;;4.28;1.90;;;-1.60;99.90;;;;;;5002592;28;20052;-41
2023/03/08 05:25:58;;;;;;;6.43;2.30;;;-1.60;99.90;;;;;;5004500;28;20522;-41
2023/03/08 05:28:26;;;;;;;4.27;2.10;;;-1.60;99.90;;;;;;5005404;28;20060;-41
2023/03/08 05:31:07;;;;;;;5.90;2.33;;;-1.60;99.90;;;;;;4997434;28;20109;-40
2023/03/08 05:33:34;;;;;;;4.28;2.15;;;-1.60;99.90;;;;;;5002329;28;21007;-40
2023/03/08 05:36:00;;;;;;;6.15;2.47;;;-1.50;99.90;;;;;;4999466;28;20496;-41
2023/03/08 05:38:26;;;;;;;5.45;2.45;;;-1.50;99.90;;;;;;5004106;28;20053;-41
2023/03/08 05:40:52;;;;;;;5.82;3.33;;;-1.50;99.90;;;;;;4999791;28;20060;-41
2023/03/08 05:43:18;;;;;;;4.97;2.60;;;-1.50;99.90;;;;;;5002137;28;20053;-41
2023/03/08 05:46:11;;;;;;;6.85;2.85;;;-1.40;99.90;;;;;;5003822;28;20073;-50
2023/03/08 05:48:37;;;;;;;7.95;3.42;;;-1.40;99.90;;;;;;4997069;28;20053;-41
2023/03/08 05:51:08;;;;;;;5.93;2.50;;;-1.40;99.90;;;;;;5001461;28;20415;-41
2023/03/08 05:53:34;;;;;;;4.70;2.50;;;-1.40;99.90;;;;;;5000523;28;20073;-42
2023/03/08 05:56:12;;;;;;;4.97;2.80;;;-1.40;99.90;;;;;;4999205;28;20449;-42
2023/03/08 05:58:38;;;;;;;4.00;2.20;;;-1.40;99.90;;;;;;5012307;28;20050;-39
2023/03/08 06:01:12;;;;;;;4.95;2.80;;;-1.40;99.90;;;;;;5003435;28;20165;-40
2023/03/08 06:03:38;;;;;;;4.25;2.35;;;-1.40;99.90;;;;;;4998281;28;20562;-38
2023/03/08 06:06:04;;;;;;;8.90;3.28;;;-1.40;99.90;;;;;;5003938;28;20058;-40
2023/03/08 06:08:29;;;;;;;4.97;2.50;;;-1.40;99.90;;;;;;5004076;28;20058;-40
2023/03/08 06:10:55;;;;;;;5.38;2.88;;;-1.40;99.90;;;;;;4996141;28;20129;-40
2023/03/08 06:13:21;;;;;;;7.22;3.08;;;-1.40;99.90;;;;;;5002978;28;20492;-41
2023/03/08 06:15:46;;;;;;;7.90;2.67;;;-1.40;99.90;;;;;;5001947;28;20057;-42
2023/03/08 06:18:12;;;;;;;5.32;2.67;;;-1.40;99.90;;;;;;5004618;28;20050;-35
2023/03/08 06:20:37;;;;;;;5.68;2.92;;;-1.40;99.90;;;;;;4997966;28;20077;-35
2023/03/08 06:23:03;;;;;;;6.82;3.22;;;-1.40;99.90;;;;;;4998003;28;20054;-39
2023/03/08 06:25:29;;;;;;;8.10;3.10;;;-1.40;99.90;;;;;;5006353;28;20060;-44
2023/03/08 06:27:54;;;;;;;4.72;2.80;;;-1.40;99.90;;;;;;5007134;28;20101;-45
2023/03/08 06:30:20;;;;;;;4.25;2.42;;;-1.50;99.90;;;;;;5007494;28;20046;-46
2023/03/08 06:32:46;;;;;;;6.80;3.22;;;-1.40;99.90;;;;;;5002251;28;20136;-45
2023/03/08 06:35:12;;;;;;;6.30;3.22;;;-1.40;99.90;;;;;;5005896;28;20049;-47
2023/03/08 06:37:37;;;;;;;6.55;3.53;;;-1.40;99.90;;;;;;5008032;28;20049;-45
2023/03/08 06:40:04;;;;;;;5.72;3.17;;;-1.40;99.90;;;;;;5007798;28;20137;-44
2023/03/08 06:42:30;;;;;;;8.57;3.08;;;-1.40;99.90;;;;;;5004866;28;20046;-44
2023/03/08 06:44:56;;;;;;;7.82;3.47;;;-1.40;99.90;;;;;;5004003;28;20503;-46
2023/03/08 06:47:22;;;;;;;7.40;3.30;;;-1.40;99.90;;;;;;5006326;28;20069;-35
2023/03/08 06:49:48;;;;;;;4.68;2.85;;;-1.40;99.90;;;;;;5003896;28;20054;-35
2023/03/08 06:52:13;;;;;;;7.57;2.97;;;-1.30;99.90;;;;;;5005732;28;20152;-35
2023/03/08 06:54:39;;;;;;;4.78;3.00;;;-1.30;99.90;;;;;;5005032;28;20081;-36
2023/03/08 06:57:05;;;;;;;6.72;3.45;;;-1.30;99.90;;;;;;5006230;28;20068;-35
2023/03/08 06:59:30;;;;;;;4.70;2.92;;;-1.20;99.90;;;;;;5004439;28;20065;-35
2023/03/08 07:01:56;;;;;;;5.65;3.42;;;-1.20;99.90;;;;;;4999183;28;20515;-35
2023/03/08 07:04:22;;;;;;;5.07;3.30;;;-1.20;99.90;;;;;;5000446;28;20549;-35
2023/03/08 07:06:47;;;;;;;6.82;3.70;;;-1.20;99.90;;;;;;5001881;28;20649;-35
2023/03/08 07:09:13;;;;;;;6.65;4.10;;;-1.20;99.90;;;;;;5003773;28;20196;-46
2023/03/08 07:11:39;;;;;;;6.07;3.22;;;-1.10;99.90;;;;;;5003084;28;20484;-46
2023/03/08 07:14:05;;;;;;;8.15;4.18;;;-1.10;99.90;;;;;;5003793;28;20068;-51
2023/03/08 07:16:30;;;;;;;6.95;3.20;;;-1.10;99.90;;;;;;5002192;28;20508;-46
2023/03/08 07:18:56;;;;;;;7.75;4.00;;;-1.10;99.90;;;;;;5002328;28;20050;-43
2023/03/08 07:21:23;;;;;;;8.13;4.80;;;-1.00;99.90;;;;;;5005342;28;20050;-46
2023/03/08 07:23:52;;;;;;;8.32;4.38;;;-1.00;99.90;;;;;;5004390;28;20057;-45
2023/03/08 07:26:17;;;;;;;8.40;4.43;;;-1.00;99.90;;;;;;5001879;28;20045;-41
2023/03/08 07:28:46;;;;;;;10.15;4.78;;;-1.00;99.90;;;;;;5006367;28;20100;-44
2023/03/08 07:31:12;;;;;;;25.08;7.07;;;-1.00;99.90;;;;;;5000816;28;20650;-41
2023/03/08 07:33:38;;;;;;;18.30;6.25;;;-1.00;99.90;;;;;;4994852;28;20052;-52
2023/03/08 07:36:03;;;;;;;21.90;5.35;;;-1.00;99.90;;;;;;4997652;28;20046;-43
2023/03/08 07:38:29;;;;;;;21.52;5.97;;;-1.00;99.90;;;;;;5000807;28;20049;-46
2023/03/08 07:40:55;;;;;;;17.75;6.30;;;-1.00;99.90;;;;;;4994378;28;20143;-43
2023/03/08 07:43:22;;;;;;;69.25;9.18;;;-1.00;99.90;;;;;;5002069;28;20046;-43
2023/03/08 07:45:48;;;;;;;31.88;7.82;;;-1.00;99.90;;;;;;4997913;28;20534;-45
2023/03/08 07:48:14;;;;;;;45.53;9.00;;;-1.00;99.90;;;;;;5001573;28;20133;-47
2023/03/08 07:50:39;;;;;;;29.63;8.38;;;-1.00;99.90;;;;;;5000435;28;20050;-45
2023/03/08 07:53:06;;;;;;;21.52;8.20;;;-1.00;99.90;;;;;;5000739;28;20659;-47
2023/03/08 07:55:33;;;;;;;25.80;8.15;;;-0.90;99.90;;;;;;5001137;28;20042;-44
2023/03/08 07:57:58;;;;;;;59.90;12.40;;;-0.80;99.90;;;;;;4998269;28;20191;-44
2023/03/08 08:00:24;;;;;;;57.08;12.13;;;-0.80;99.90;;;;;;5000866;28;21427;-46
2023/03/08 08:02:52;;;;;;;26.15;9.38;;;-0.80;99.90;;;;;;4999044;28;20515;-44
2023/03/08 08:05:20;;;;;;;44.85;9.38;;;-0.80;99.90;;;;;;5000508;28;20057;-35
2023/03/08 08:07:49;;;;;;;41.35;9.80;;;-0.70;99.90;;;;;;5001517;28;20050;-35
2023/03/08 08:10:15;;;;;;;36.15;10.98;;;-0.70;99.90;;;;;;4996485;28;20066;-35
2023/03/08 08:12:41;;;;;;;35.00;10.55;;;-0.70;99.90;;;;;;5002142;28;20062;-36
2023/03/08 08:15:06;;;;;;;29.70;9.20;;;-0.70;99.90;;;;;;4998529;28;20379;-35
2023/03/08 08:17:32;;;;;;;23.02;9.40;;;-0.80;99.90;;;;;;4995165;28;20374;-36
2023/03/08 08:19:58;;;;;;;17.92;8.30;;;-0.70;99.90;;;;;;5001144;28;20081;-36
2023/03/08 08:22:24;;;;;;;18.63;8.55;;;-0.70;99.90;;;;;;4999144;28;20149;-36
2023/03/08 08:24:50;;;;;;;17.65;9.05;;;-0.70;99.90;;;;;;4999142;28;20045;-36
2023/03/08 08:27:15;;;;;;;19.02;9.20;;;-0.60;99.90;;;;;;4997222;28;20054;-36
2023/03/08 08:29:44;;;;;;;25.00;9.68;;;-0.50;99.90;;;;;;4999284;28;20084;-36
2023/03/08 08:32:10;;;;;;;16.73;8.90;;;-0.40;99.90;;;;;;4986893;28;20061;-48
2023/03/08 08:34:36;;;;;;;20.45;8.20;;;-0.40;99.90;;;;;;4993226;28;20054;-35
2023/03/08 08:37:02;;;;;;;14.15;7.68;;;-0.30;99.90;;;;;;4998377;28;20123;-36
2023/03/08 08:39:28;;;;;;;16.77;8.68;;;-0.30;99.90;;;;;;5016215;28;20084;-36
2023/03/08 08:41:54;;;;;;;14.20;7.78;;;-0.20;99.90;;;;;;5003710;28;20085;-36
2023/03/08 08:44:19;;;;;;;14.10;7.68;;;-0.10;99.90;;;;;;4992592;28;20080;-36
2023/03/08 08:46:45;;;;;;;17.83;7.50;;;-0.10;99.90;;;;;;5001529;28;20049;-36
2023/03/08 08:49:11;;;;;;;13.68;7.63;;;0.00;99.90;;;;;;4996562;28;20116;-35
2023/03/08 08:51:37;;;;;;;12.68;6.88;;;0.00;99.90;;;;;;5003485;28;20534;-35
2023/03/08 08:54:02;;;;;;;16.50;7.78;;;0.10;99.90;;;;;;5004828;28;20399;-36
2023/03/08 08:56:29;;;;;;;14.90;8.48;;;0.10;99.90;;;;;;5004454;28;20081;-35
2023/03/08 08:59:00;;;;;;;15.57;7.72;;;0.20;99.90;;;;;;5003259;28;20077;-36
2023/03/08 09:01:28;;;;;;;12.52;6.95;;;0.30;99.90;;;;;;5003270;28;20050;-35
2023/03/08 09:03:54;;;;;;;14.18;7.35;;;0.40;99.90;;;;;;5002739;28;20053;-36
2023/03/08 09:06:21;;;;;;;11.65;6.80;;;0.50;99.90;;;;;;5000900;28;20050;-36
2023/03/08 09:08:53;;;;;;;16.65;8.52;;;0.60;99.90;;;;;;5002057;28;20506;-39
2023/03/08 09:11:19;;;;;;;12.70;7.72;;;0.60;99.90;;;;;;4999241;28;20053;-37
2023/03/08 09:13:45;;;;;;;14.98;8.15;;;0.70;99.90;;;;;;5002105;28;20042;-37
2023/03/08 09:16:24;;;;;;;15.43;8.55;;;0.80;99.90;;;;;;5002796;28;20053;-37
2023/03/08 09:18:51;;;;;;;13.25;8.07;;;0.80;99.90;;;;;;5003943;28;20519;-36
2023/03/08 09:21:16;;;;;;;13.70;7.65;;;0.90;99.90;;;;;;5002840;28;20112;-35
2023/03/08 09:23:43;;;;;;;12.20;6.95;;;1.00;99.90;;;;;;5004471;28;20053;-34
2023/03/08 09:26:09;;;;;;;13.13;7.57;;;1.10;99.90;;;;;;4999876;28;20145;-35
2023/03/08 09:28:35;;;;;;;11.02;6.60;;;1.10;99.90;;;;;;5002650;28;20076;-35
2023/03/08 09:31:11;;;;;;;16.60;7.38;;;1.20;99.90;;;;;;5002824;28;20050;-35
2023/03/08 09:33:42;;;;;;;11.65;6.45;;;1.20;99.90;;;;;;4999023;28;20068;-35
2023/03/08 09:36:08;;;;;;;14.55;8.25;;;1.10;99.90;;;;;;4999857;28;20133;-35
2023/03/08 09:38:34;;;;;;;13.90;7.90;;;1.10;99.90;;;;;;4998486;28;20100;-35
2023/03/08 09:41:14;;;;;;;14.25;7.93;;;1.20;99.90;;;;;;5001220;28;20062;-36
2023/03/08 09:44:18;;;;;;;14.40;7.63;;;1.20;99.90;;;;;;5001988;28;20484;-35
2023/03/08 09:46:57;;;;;;;15.70;7.90;;;1.30;99.90;;;;;;4956876;28;20059;-35
2023/03/08 09:49:29;;;;;;;14.43;7.93;;;1.30;99.90;;;;;;4997139;28;20054;-36
2023/03/08 09:52:21;;;;;;;12.90;7.45;;;1.30;99.90;;;;;;5003132;28;20050;-36
2023/03/08 09:54:48;;;;;;;14.32;7.63;;;1.30;99.90;;;;;;4989792;28;20057;-36
2023/03/08 09:57:23;;;;;;;20.67;7.25;;;1.50;99.90;;;;;;5000110;28;20160;-36
2023/03/08 09:59:58;;;;;;;13.90;7.05;;;1.50;99.90;;;;;;5005088;28;20058;-42
2023/03/08 10:02:42;;;;;;;13.80;7.20;;;1.70;99.90;;;;;;5005561;28;20053;-40
2023/03/08 10:05:14;;;;;;;14.15;7.60;;;1.70;99.90;;;;;;5007240;28;20057;-42
2023/03/08 10:07:50;;;;;;;17.20;8.52;;;1.90;99.90;;;;;;5006296;28;20054;-45
2023/03/08 10:10:22;;;;;;;15.95;8.55;;;2.10;99.90;;;;;;5002159;28;20140;-44
2023/03/08 10:13:06;;;;;;;14.55;8.05;;;2.20;99.90;;;;;;5007197;28;20780;-42
2023/03/08 10:15:38;;;;;;;16.38;7.82;;;2.30;99.90;;;;;;5004626;28;20089;-46
2023/03/08 10:18:16;;;;;;;;;;;2.50;99.90;;;;;;5000720;28;20073;-37
2023/03/08 10:20:42;;;;;;;14.75;7.55;;;2.60;99.90;;;;;;5003878;28;19921;-37
2023/03/08 10:23:21;;;;;;;14.13;7.05;;;2.70;99.90;;;;;;5003130;28;20050;-37
2023/03/08 10:25:48;;;;;;;14.77;8.00;;;2.80;99.90;;;;;;5003106;28;20141;-37
2023/03/08 10:28:22;;;;;;;15.73;7.72;;;2.90;99.90;;;;;;5000915;28;20061;-37
2023/03/08 10:30:57;;;;;;;12.85;6.82;;;3.00;99.90;;;;;;4999567;28;20602;-37
2023/03/08 10:33:25;;;;;;;13.55;6.95;;;3.10;99.90;;;;;;5000378;28;20053;-37
2023/03/08 10:36:08;;;;;;;13.80;7.57;;;3.30;99.90;;;;;;5000219;28;20569;-37
2023/03/08 10:38:35;;;;;;;;;;;3.40;99.90;;;;;;5003265;28;20054;-37
2023/03/08 10:41:11;;;;;;;11.30;5.68;;;3.60;99.90;;;;;;5002987;28;20440;-37
2023/03/08 10:43:49;;;;;;;17.10;6.55;;;3.70;99.90;;;;;;5001179;28;20088;-37
2023/03/08 10:46:18;;;;;;;13.95;6.13;;;3.70;99.90;;;;;;4999368;28;21394;-37
2023/03/08 10:48:44;;;;;;;14.68;5.90;;;3.80;99.90;;;;;;5000972;28;20105;-43
2023/03/08 10:51:24;;;;;;;12.48;6.60;;;3.90;99.90;;;;;;5000836;28;20495;-35
2023/03/08 10:54:02;;;;;;;12.48;6.30;;;3.90;99.90;;;;;;5001499;28;20080;-47
2023/03/08 10:56:54;;;;;;;11.65;6.47;;;3.90;99.90;;;;;;5000330;28;20041;-47
2023/03/08 10:59:26;;;;;;;11.68;5.80;;;3.90;99.90;;;;;;5002070;28;20571;-44
2023/03/08 11:01:59;;;;;;;10.85;5.85;;;3.90;99.90;;;;;;4999945;28;20523;-44
2023/03/08 11:04:26;;;;;;;11.60;5.43;;;3.90;99.90;;;;;;5004044;28;20185;-45
2023/03/08 11:06:52;;;;;;;10.93;5.45;;;3.90;99.90;;;;;;5005116;28;20132;-47
2023/03/08 11:09:30;;;;;;;10.27;5.72;;;4.00;99.90;;;;;;5001209;28;20046;-44
2023/03/08 11:11:59;;;;;;;12.25;6.45;;;4.10;99.90;;;;;;4999106;28;20411;-45
2023/03/08 11:14:26;;;;;;;12.73;5.57;;;4.10;99.90;;;;;;4994827;28;20061;-45
2023/03/08 11:17:18;;;;;;;11.80;6.28;;;4.10;99.90;;;;;;4999140;28;20042;-48
2023/03/08 11:19:58;;;;;;;12.30;6.10;;;4.20;99.90;;;;;;4997733;28;20065;-42
2023/03/08 11:23:02;;;;;;;10.38;5.65;;;4.30;99.90;;;;;;4999114;28;20648;-36
2023/03/08 11:25:57;;;;;;;10.13;5.32;;;4.20;99.90;;;;;;4983468;28;20077;-37
2023/03/08 11:28:38;;;;;;;12.35;4.60;;;4.30;99.90;;;;;;4991994;28;20086;-37
2023/03/08 11:31:40;;;;;;;11.43;5.50;;;4.30;99.90;;;;;;5003472;28;20045;-37
2023/03/08 11:34:31;;;;;;;9.80;5.00;;;4.40;99.90;;;;;;5004531;28;20058;-36
2023/03/08 11:36:59;;;;;;;9.85;5.03;;;4.50;99.90;;;;;;5002302;28;20049;-36
2023/03/08 11:39:29;;;;;;;11.00;4.70;;;4.60;99.90;;;;;;4997919;28;20077;-37
2023/03/08 11:42:00;;;;;;;10.32;4.38;;;4.70;99.90;;;;;;4997398;28;20058;-37
2023/03/08 11:44:59;;;;;;;7.05;3.63;;;4.70;99.90;;;;;;4997085;28;20274;-36
2023/03/08 11:47:52;;;;;;;7.38;3.85;;;4.70;99.90;;;;;;5000408;28;20065;-37
2023/03/08 11:50:32;;;;;;;8.33;3.93;;;4.70;99.90;;;;;;4995237;28;20061;-38
2023/03/08 11:53:34;;;;;;;8.90;3.80;;;4.70;99.90;;;;;;4998188;28;20304;-38
2023/03/08 11:56:19;;;;;;;7.57;3.95;;;4.60;99.90;;;;;;4998933;28;20046;-40
2023/03/08 11:58:51;;;;;;;9.30;4.38;;;4.60;99.90;;;;;;5000589;28;20115;-38
2023/03/08 12:01:31;;;;;;;8.55;4.07;;;4.60;99.90;;;;;;4995306;28;20111;-38
2023/03/08 12:04:12;;;;;;;7.88;4.22;;;4.60;99.90;;;;;;4999944;28;20099;-38
2023/03/08 12:06:41;;;;;;;15.93;4.45;;;4.60;99.90;;;;;;4991987;28;20144;-38
2023/03/08 12:09:16;;;;;;;6.57;3.50;;;4.60;99.90;;;;;;4998056;28;20062;-37
2023/03/08 12:11:53;;;;;;;8.73;4.25;;;4.60;99.90;;;;;;4993001;28;20051;-39
2023/03/08 12:14:37;;;;;;;8.48;4.55;;;4.70;99.90;;;;;;4998645;28;20050;-36
2023/03/08 12:17:21;;;;;;;6.68;3.42;;;4.70;99.90;;;;;;4999104;28;20107;-36
2023/03/08 12:19:50;;;;;;;9.15;4.03;;;4.70;99.90;;;;;;4996563;28;20140;-36
2023/03/08 12:22:27;;;;;;;8.65;3.65;;;4.80;99.90;;;;;;5000591;28;20046;-37
2023/03/08 12:25:04;;;;;;;8.10;3.63;;;4.80;99.90;;;;;;5001644;28;20447;-37
2023/03/08 12:27:36;;;;;;;7.68;3.17;;;4.80;99.90;;;;;;4999585;28;20136;-45
2023/03/08 12:30:22;;;;;;;10.23;3.85;;;4.80;99.90;;;;;;4994007;28;20054;-37
2023/03/08 12:32:50;;;;;;;8.48;3.67;;;4.90;99.90;;;;;;5001121;28;20491;-37
2023/03/08 12:35:22;;;;;;;10.30;3.70;;;4.90;99.90;;;;;;5017460;28;20041;-37
2023/03/08 12:38:17;;;;;;;10.97;3.77;;;4.90;99.90;;;;;;5001616;28;20127;-37
2023/03/08 12:40:47;;;;;;;9.10;3.20;;;4.90;99.90;;;;;;4993141;28;20415;-37
2023/03/08 12:43:34;;;;;;;8.88;3.38;;;4.90;99.90;;;;;;4995444;28;20093;-37
2023/03/08 12:46:03;;;;;;;7.93;3.40;;;4.90;99.90;;;;;;5000310;28;20575;-37
2023/03/08 12:48:47;;;;;;;8.48;3.80;;;5.00;99.90;;;;;;5000795;28;20104;-37
2023/03/08 12:51:13;;;;;;;8.45;3.75;;;5.10;99.90;;;;;;4995091;28;20532;-37
2023/03/08 12:53:38;;;;;;;8.27;3.38;;;5.20;99.90;;;;;;5005217;28;20133;-37
2023/03/08 12:56:10;;;;;;;9.60;3.25;;;5.20;99.90;;;;;;4995024;28;20134;-37
2023/03/08 12:58:57;;;;;;;8.13;3.40;;;5.20;99.90;;;;;;4992708;28;20061;-38
2023/03/08 13:01:57;;;;;;;8.85;3.00;;;5.20;99.90;;;;;;4996146;28;21009;-37